KDAAKRMN

Guest
Details From KDAA - DAVISON AAF
To KRMN - STAFFORD RGNL
Flight Number -
Tags generated
Created
Modified
Stats Distance 25 nm / 46 km
Max Altitude 900 ft / 274 m
Waypoints 3
Social Downloads 0
Likes 0
Share VATSIM

Download

Looking for another format? Having issues loading an existing format? Contact us
Advertisement - Login to hide

Notes

Basic altitude profile: - Ascent Rate: 2500ft/min - Ascent Speed: 250kts - Cruise Altitude: 35000ft - Cruise Speed: 420kts - Descent Rate: 1500ft/min - Descent Speed: 250kts Options: - Use NATs: yes - Use PACOTS: yes - Use low airways: yes - Use high airways: yes

Route

KDAA BOOYA KRMN

ID Type Via Altitude Latitude Longitude Leg Dist Tot Dist Heading (true) Name
O KDAA APT - 0 ft / 0 m 38.71511˚ -77.18114˚ - 0 nm - DAVISON AAF
BOOYA FIX - 900 ft / 274 m 38.40569˚ -77.36288˚ 20 nm 20 nm 205° / 205° -
O KRMN APT - 0 ft / 0 m 38.39810˚ -77.45547˚ 4 nm 24 nm 264° / 264° STAFFORD RGNL

Altitude Profile

Advertisement - Login to hide

KDAA

Details ICAO KDAA
Name DAVISON AAF
Region United States
Timezone America/New_York (UTC-5.0)
Stats Elevation 73 ft / 22 m (AMSL)
Location 38.715111° -77.181145°
Runways 1
Magnetic Variation 10.709° W

METAR

KDAA 170356Z AUTO 00000KT 10SM CLR M02/M05 A3020 RMK AO2 SLP231 T10251050 $

Decode

TAF

Not found

Departure Runways

ID Width Length Bearing (true) Bearing (mag) Surface Threshold Offset Overrun Length
14 74 ft / 23 m 5,618 ft / 1,712 m 133.59° 144.30° Asphalt 687 ft / 209 m 500 ft / 152 m
32 74 ft / 23 m 5,618 ft / 1,712 m 313.60° 324.31° Asphalt 891 ft / 272 m 200 ft / 61 m

KRMN

Details ICAO KRMN
Name STAFFORD RGNL
Region United States
Timezone America/New_York (UTC-5.0)
Stats Elevation 211 ft / 64 m (AMSL)
Location 38.398096° -77.455465°
Runways 1
Magnetic Variation 10.480° W

METAR

KRMN 170415Z AUTO 00000KT 10SM CLR 01/M04 A3024 RMK AO2 T00101036

Decode

TAF

Not found

Destination Runways

ID Width Length Bearing (true) Bearing (mag) Surface Threshold Offset Overrun Length
15 100 ft / 30 m 5,001 ft / 1,524 m 139.27° 149.75° Asphalt 0 ft / 0 m 0 ft / 0 m
33 100 ft / 30 m 5,001 ft / 1,524 m 319.28° 329.76° Asphalt 0 ft / 0 m 0 ft / 0 m

Approach Navaids

Runway Type Ident Frequency Range Bearing (true) Bearing (mag) Slope Elevation
33 Localiser IRMN 108.75 MHz 18 nm / 33 km 319.26° 329.74° - 218 ft / 66 m (AMSL)
33 Glidescope IRMN 108.75 MHz 10 nm / 19 km 319.28° 329.76° 3.00° 175 ft / 53 m (AMSL)
33 DME IRMN 108.75 MHz 18 nm / 33 km - - - 226 ft / 69 m (AMSL)